CZEM

Eastmain River Airport

ICAO Code CZEM
IATA Code ZEM
Name Eastmain River Airport
Location Eastmain River, Quebec, CA
Elevation 24 Feet / 7.3 Meters
Latitude 52.22638889
Longitude -78.52250000
METAR CZEM 182000Z 28007KT 15SM FEW050 27/14 A2984 RMK SC2 LAST STFD OBS/NEXT 191300 UTC SLP106 DENSITY ALT 1500FT
Extra information Display NOTAMS
Display Charts
Runway Length Width Surface Elevation
02 3512 ft 100 ft GRAVEL 21 ft
20 3512 ft 100 ft GRAVEL 24 ft